sensor_id;sensor_type;location;lat;lon;timestamp;pressure;altitude;pressure_sealevel;temperature;humidity
43934;BME280;59081;42.706;23.306;2023-05-01T00:01:22;95071.81;;;10.77;73.68
43934;BME280;59081;42.706;23.306;2023-05-01T00:03:48;95187.38;;;11.35;74.49
43934;BME280;59081;42.706;23.306;2023-05-01T00:06:14;95131.78;;;10.86;75.29
43934;BME280;59081;42.706;23.306;2023-05-01T00:08:39;95110.47;;;10.48;76.09
43934;BME280;59081;42.706;23.306;2023-05-01T00:11:05;95200.16;;;11.16;75.84
43934;BME280;59081;42.706;23.306;2023-05-01T00:13:34;95169.03;;;10.77;76.52
43934;BME280;59081;42.706;23.306;2023-05-01T00:15:59;95081.00;;;10.20;76.43
43934;BME280;59081;42.706;23.306;2023-05-01T00:18:25;95100.41;;;10.29;76.90
43934;BME280;59081;42.706;23.306;2023-05-01T00:20:50;95147.28;;;10.54;76.92
43934;BME280;59081;42.706;23.306;2023-05-01T00:23:16;95154.69;;;10.70;76.64
43934;BME280;59081;42.706;23.306;2023-05-01T00:25:41;95031.88;;;9.76;77.14
43934;BME280;59081;42.706;23.306;2023-05-01T00:28:07;95139.53;;;10.36;77.86
43934;BME280;59081;42.706;23.306;2023-05-01T00:30:33;95197.75;;;10.64;78.42
43934;BME280;59081;42.706;23.306;2023-05-01T00:32:58;95046.97;;;9.56;78.87
43934;BME280;59081;42.706;23.306;2023-05-01T00:35:25;95106.91;;;9.77;79.69
43934;BME280;59081;42.706;23.306;2023-05-01T00:37:50;95236.66;;;10.66;79.51
43934;BME280;59081;42.706;23.306;2023-05-01T00:40:16;95239.38;;;10.53;79.94
43934;BME280;59081;42.706;23.306;2023-05-01T00:42:41;95115.13;;;9.93;79.22
43934;BME280;59081;42.706;23.306;2023-05-01T00:45:07;95097.75;;;9.96;78.23
43934;BME280;59081;42.706;23.306;2023-05-01T00:47:36;95097.56;;;10.03;77.82
43934;BME280;59081;42.706;23.306;2023-05-01T00:50:03;95152.97;;;10.47;77.53
43934;BME280;59081;42.706;23.306;2023-05-01T00:52:47;95241.06;;;11.05;77.97
43934;BME280;59081;42.706;23.306;2023-05-01T00:55:13;95147.91;;;10.45;77.48
43934;BME280;59081;42.706;23.306;2023-05-01T00:57:38;95157.97;;;10.52;77.41
43934;BME280;59081;42.706;23.306;2023-05-01T01:00:04;95187.66;;;10.73;77.46
43934;BME280;59081;42.706;23.306;2023-05-01T01:02:30;95239.03;;;10.93;77.82
43934;BME280;59081;42.706;23.306;2023-05-01T01:04:56;95143.59;;;10.44;77.79
43934;BME280;59081;42.706;23.306;2023-05-01T01:07:32;95106.63;;;10.17;77.43
43934;BME280;59081;42.706;23.306;2023-05-01T01:15:36;95149.19;;;10.28;78.45
43934;BME280;59081;42.706;23.306;2023-05-01T01:18:07;95247.44;;;11.02;78.84
43934;BME280;59081;42.706;23.306;2023-05-01T01:26:08;95117.53;;;9.91;79.54
43934;BME280;59081;42.706;23.306;2023-05-01T01:29:01;95160.06;;;10.19;79.46
43934;BME280;59081;42.706;23.306;2023-05-01T01:31:56;95144.31;;;10.20;79.07
43934;BME280;59081;42.706;23.306;2023-05-01T01:34:34;95186.56;;;10.42;79.12
43934;BME280;59081;42.706;23.306;2023-05-01T01:37:10;95195.50;;;10.46;78.96
43934;BME280;59081;42.706;23.306;2023-05-01T01:40:04;95265.59;;;10.87;79.51
43934;BME280;59081;42.706;23.306;2023-05-01T01:42:45;95269.56;;;10.86;79.69
43934;BME280;59081;42.706;23.306;2023-05-01T01:45:16;95114.56;;;9.86;79.83
43934;BME280;59081;42.706;23.306;2023-05-01T01:47:44;95158.56;;;10.15;79.41
43934;BME280;59081;42.706;23.306;2023-05-01T01:50:11;95208.59;;;10.42;79.95
43934;BME280;59081;42.706;23.306;2023-05-01T01:52:39;95130.13;;;9.76;80.18
43934;BME280;59081;42.706;23.306;2023-05-01T01:55:10;95253.19;;;10.37;81.41
43934;BME280;59081;42.706;23.306;2023-05-01T01:57:37;95192.19;;;9.77;82.90
43934;BME280;59081;42.706;23.306;2023-05-01T02:00:05;95257.97;;;10.20;83.39
43934;BME280;59081;42.706;23.306;2023-05-01T02:02:37;95129.91;;;9.38;83.32
43934;BME280;59081;42.706;23.306;2023-05-01T02:05:06;95242.63;;;10.03;84.20
43934;BME280;59081;42.706;23.306;2023-05-01T02:07:34;95172.94;;;9.61;84.36
43934;BME280;59081;42.706;23.306;2023-05-01T02:10:03;95220.03;;;9.95;84.56
43934;BME280;59081;42.706;23.306;2023-05-01T02:12:30;95146.16;;;9.49;84.91
43934;BME280;59081;42.706;23.306;2023-05-01T02:14:57;95215.72;;;9.94;84.83
43934;BME280;59081;42.706;23.306;2023-05-01T02:17:23;95186.59;;;9.81;84.58
43934;BME280;59081;42.706;23.306;2023-05-01T02:19:52;95144.19;;;9.49;85.09
43934;BME280;59081;42.706;23.306;2023-05-01T02:22:20;95155.59;;;9.64;84.80
43934;BME280;59081;42.706;23.306;2023-05-01T02:24:47;95176.53;;;9.74;84.66
43934;BME280;59081;42.706;23.306;2023-05-01T02:27:17;95203.34;;;10.02;84.12
43934;BME280;59081;42.706;23.306;2023-05-01T02:29:44;95168.03;;;9.85;83.68
43934;BME280;59081;42.706;23.306;2023-05-01T02:32:10;95195.09;;;10.02;83.40
43934;BME280;59081;42.706;23.306;2023-05-01T02:34:36;95094.41;;;9.43;83.21
43934;BME280;59081;42.706;23.306;2023-05-01T02:37:05;95224.81;;;10.24;83.59
43934;BME280;59081;42.706;23.306;2023-05-01T02:39:33;95146.66;;;9.60;83.74
43934;BME280;59081;42.706;23.306;2023-05-01T02:41:59;95256.47;;;10.32;83.63
43934;BME280;59081;42.706;23.306;2023-05-01T02:44:28;95264.22;;;10.37;83.68
43934;BME280;59081;42.706;23.306;2023-05-01T02:46:58;95203.44;;;9.99;83.20
43934;BME280;59081;42.706;23.306;2023-05-01T02:49:25;95168.97;;;9.78;82.69
43934;BME280;59081;42.706;23.306;2023-05-01T02:51:52;95264.56;;;10.39;82.65
43934;BME280;59081;42.706;23.306;2023-05-01T02:54:18;95057.94;;;8.94;82.56
43934;BME280;59081;42.706;23.306;2023-05-01T02:56:43;95180.06;;;9.74;82.92
43934;BME280;59081;42.706;23.306;2023-05-01T02:59:09;95256.47;;;10.16;83.56
43934;BME280;59081;42.706;23.306;2023-05-01T03:01:34;95238.00;;;10.00;83.76
43934;BME280;59081;42.706;23.306;2023-05-01T03:04:00;95190.81;;;9.53;84.76
43934;BME280;59081;42.706;23.306;2023-05-01T03:06:25;95164.41;;;9.06;85.86
43934;BME280;59081;42.706;23.306;2023-05-01T03:08:53;95193.38;;;9.11;86.59
43934;BME280;59081;42.706;23.306;2023-05-01T03:11:18;95271.09;;;9.80;86.16
43934;BME280;59081;42.706;23.306;2023-05-01T03:13:45;95123.31;;;8.67;86.37
43934;BME280;59081;42.706;23.306;2023-05-01T03:16:11;95212.56;;;9.31;86.93
43934;BME280;59081;42.706;23.306;2023-05-01T03:18:37;95157.41;;;8.86;87.45
43934;BME280;59081;42.706;23.306;2023-05-01T03:21:03;95081.91;;;8.42;87.47
43934;BME280;59081;42.706;23.306;2023-05-01T03:23:28;95111.72;;;8.59;87.52
43934;BME280;59081;42.706;23.306;2023-05-01T03:25:53;95187.59;;;9.05;87.54
43934;BME280;59081;42.706;23.306;2023-05-01T03:28:19;95175.66;;;8.96;87.48
43934;BME280;59081;42.706;23.306;2023-05-01T03:30:49;95157.53;;;8.82;87.53
43934;BME280;59081;42.706;23.306;2023-05-01T03:33:14;95107.75;;;8.44;87.41
43934;BME280;59081;42.706;23.306;2023-05-01T03:35:40;95212.00;;;8.84;88.91
43934;BME280;59081;42.706;23.306;2023-05-01T03:38:05;95160.38;;;8.39;89.63
43934;BME280;59081;42.706;23.306;2023-05-01T03:40:31;95186.03;;;8.68;89.28
43934;BME280;59081;42.706;23.306;2023-05-01T03:42:56;95165.66;;;8.50;89.14
43934;BME280;59081;42.706;23.306;2023-05-01T03:45:22;95177.25;;;8.57;89.22
43934;BME280;59081;42.706;23.306;2023-05-01T03:47:47;95182.34;;;8.39;89.93
43934;BME280;59081;42.706;23.306;2023-05-01T03:50:13;95194.34;;;8.25;91.05
43934;BME280;59081;42.706;23.306;2023-05-01T03:52:41;95211.81;;;8.35;91.89
43934;BME280;59081;42.706;23.306;2023-05-01T03:55:07;95151.53;;;7.88;92.11
43934;BME280;59081;42.706;23.306;2023-05-01T03:57:33;95235.13;;;8.47;92.26
43934;BME280;59081;42.706;23.306;2023-05-01T03:59:58;95318.63;;;8.69;93.15
43934;BME280;59081;42.706;23.306;2023-05-01T04:02:24;95279.06;;;8.23;95.20
43934;BME280;59081;42.706;23.306;2023-05-01T04:04:50;95144.19;;;7.39;95.63
43934;BME280;59081;42.706;23.306;2023-05-01T04:07:15;95208.41;;;7.84;96.18
43934;BME280;59081;42.706;23.306;2023-05-01T04:09:41;95187.97;;;7.89;96.12
43934;BME280;59081;42.706;23.306;2023-05-01T04:12:07;95320.34;;;8.63;96.49
43934;BME280;59081;42.706;23.306;2023-05-01T04:14:33;95171.84;;;7.71;96.69
43934;BME280;59081;42.706;23.306;2023-05-01T04:16:58;95145.03;;;7.59;96.43
43934;BME280;59081;42.706;23.306;2023-05-01T04:19:24;95170.03;;;7.84;96.46
43934;BME280;59081;42.706;23.306;2023-05-01T04:21:52;95167.16;;;7.91;96.13
43934;BME280;59081;42.706;23.306;2023-05-01T04:24:19;95178.97;;;7.65;97.24
43934;BME280;59081;42.706;23.306;2023-05-01T04:26:44;95172.84;;;7.57;98.32
43934;BME280;59081;42.706;23.306;2023-05-01T04:29:10;95328.78;;;8.72;98.06
43934;BME280;59081;42.706;23.306;2023-05-01T04:31:35;95336.97;;;8.76;97.55
43934;BME280;59081;42.706;23.306;2023-05-01T04:34:01;95189.31;;;8.00;96.86
43934;BME280;59081;42.706;23.306;2023-05-01T04:36:26;95240.69;;;8.43;96.00
43934;BME280;59081;42.706;23.306;2023-05-01T04:38:53;95215.75;;;8.34;95.44
43934;BME280;59081;42.706;23.306;2023-05-01T04:41:19;95216.41;;;8.42;95.54
43934;BME280;59081;42.706;23.306;2023-05-01T04:43:45;95256.41;;;8.62;95.90
43934;BME280;59081;42.706;23.306;2023-05-01T04:46:11;95189.31;;;8.44;95.65
43934;BME280;59081;42.706;23.306;2023-05-01T04:48:36;95246.03;;;8.90;95.56
43934;BME280;59081;42.706;23.306;2023-05-01T04:51:02;95198.94;;;8.71;94.52
43934;BME280;59081;42.706;23.306;2023-05-01T04:53:28;95182.56;;;8.84;93.46
43934;BME280;59081;42.706;23.306;2023-05-01T04:55:54;95310.63;;;9.70;92.40
43934;BME280;59081;42.706;23.306;2023-05-01T04:58:19;95200.50;;;9.25;91.08
43934;BME280;59081;42.706;23.306;2023-05-01T05:00:44;95253.81;;;9.63;90.41
43934;BME280;59081;42.706;23.306;2023-05-01T05:03:10;95196.06;;;9.47;89.50
43934;BME280;59081;42.706;23.306;2023-05-01T05:05:35;95196.06;;;9.63;88.30
43934;BME280;59081;42.706;23.306;2023-05-01T05:08:01;95235.16;;;9.87;87.32
43934;BME280;59081;42.706;23.306;2023-05-01T05:10:27;95231.28;;;10.01;86.56
43934;BME280;59081;42.706;23.306;2023-05-01T05:12:52;95218.09;;;10.08;85.55
43934;BME280;59081;42.706;23.306;2023-05-01T05:15:18;95224.97;;;10.17;85.01
43934;BME280;59081;42.706;23.306;2023-05-01T05:17:43;95248.34;;;10.41;84.44
43934;BME280;59081;42.706;23.306;2023-05-01T05:20:09;95293.31;;;10.67;83.68
43934;BME280;59081;42.706;23.306;2023-05-01T05:22:35;95235.66;;;10.31;83.73
43934;BME280;59081;42.706;23.306;2023-05-01T05:25:02;95265.03;;;10.50;83.26
43934;BME280;59081;42.706;23.306;2023-05-01T05:27:29;95358.34;;;11.22;83.59
43934;BME280;59081;42.706;23.306;2023-05-01T05:29:55;95318.75;;;10.87;83.22
43934;BME280;59081;42.706;23.306;2023-05-01T05:32:21;95314.16;;;11.09;82.81
43934;BME280;59081;42.706;23.306;2023-05-01T05:34:46;95224.88;;;10.65;81.82
43934;BME280;59081;42.706;23.306;2023-05-01T05:37:12;95256.59;;;10.99;80.46
43934;BME280;59081;42.706;23.306;2023-05-01T05:39:37;95241.69;;;10.96;80.51
43934;BME280;59081;42.706;23.306;2023-05-01T05:42:03;95363.53;;;11.87;79.75
43934;BME280;59081;42.706;23.306;2023-05-01T05:44:28;95268.47;;;11.37;79.85
43934;BME280;59081;42.706;23.306;2023-05-01T05:46:53;95253.66;;;11.31;78.48
43934;BME280;59081;42.706;23.306;2023-05-01T05:49:19;95310.84;;;11.69;78.80
43934;BME280;59081;42.706;23.306;2023-05-01T05:51:44;95265.94;;;11.56;77.88
43934;BME280;59081;42.706;23.306;2023-05-01T05:54:10;95241.88;;;11.56;77.06
43934;BME280;59081;42.706;23.306;2023-05-01T05:56:35;95322.09;;;12.12;77.20
43934;BME280;59081;42.706;23.306;2023-05-01T05:59:01;95274.41;;;12.12;76.20
43934;BME280;59081;42.706;23.306;2023-05-01T06:01:28;95371.63;;;13.36;90.96
43934;BME280;59081;42.706;23.306;2023-05-01T06:03:54;95323.69;;;13.61;85.23
43934;BME280;59081;42.706;23.306;2023-05-01T06:06:20;95340.19;;;13.73;72.98
43934;BME280;59081;42.706;23.306;2023-05-01T06:08:45;95252.69;;;13.14;71.17
43934;BME280;59081;42.706;23.306;2023-05-01T06:11:11;95322.59;;;13.36;71.54
43934;BME280;59081;42.706;23.306;2023-05-01T06:13:36;95330.09;;;13.88;79.51
43934;BME280;59081;42.706;23.306;2023-05-01T06:16:02;95323.88;;;14.46;78.06
43934;BME280;59081;42.706;23.306;2023-05-01T06:18:28;95376.03;;;15.06;72.72
43934;BME280;59081;42.706;23.306;2023-05-01T06:20:54;95365.53;;;15.19;70.39
43934;BME280;59081;42.706;23.306;2023-05-01T06:23:20;95290.03;;;14.70;68.76
43934;BME280;59081;42.706;23.306;2023-05-01T06:25:46;95304.03;;;14.66;66.64
43934;BME280;59081;42.706;23.306;2023-05-01T06:28:13;95262.38;;;14.39;66.77
43934;BME280;59081;42.706;23.306;2023-05-01T06:30:38;95239.03;;;14.49;67.83
43934;BME280;59081;42.706;23.306;2023-05-01T06:33:03;95258.59;;;14.45;66.32
43934;BME280;59081;42.706;23.306;2023-05-01T06:35:29;95260.13;;;14.46;67.73
43934;BME280;59081;42.706;23.306;2023-05-01T06:37:55;95303.44;;;14.98;67.68
43934;BME280;59081;42.706;23.306;2023-05-01T06:40:20;95336.38;;;15.60;68.01
43934;BME280;59081;42.706;23.306;2023-05-01T06:42:46;95280.44;;;15.16;63.80
43934;BME280;59081;42.706;23.306;2023-05-01T06:45:11;95329.31;;;15.23;63.67
43934;BME280;59081;42.706;23.306;2023-05-01T06:47:37;95400.97;;;15.43;64.88
43934;BME280;59081;42.706;23.306;2023-05-01T06:50:03;95385.91;;;15.35;64.84
43934;BME280;59081;42.706;23.306;2023-05-01T06:52:31;95283.56;;;14.54;65.00
43934;BME280;59081;42.706;23.306;2023-05-01T06:54:57;95294.19;;;14.65;65.04
43934;BME280;59081;42.706;23.306;2023-05-01T06:57:22;95230.53;;;14.34;65.38
43934;BME280;59081;42.706;23.306;2023-05-01T06:59:48;95325.00;;;15.13;64.77
43934;BME280;59081;42.706;23.306;2023-05-01T07:02:13;95232.88;;;14.63;63.22
43934;BME280;59081;42.706;23.306;2023-05-01T07:04:39;95366.00;;;15.54;64.13
43934;BME280;59081;42.706;23.306;2023-05-01T07:07:04;95271.41;;;14.88;64.10
43934;BME280;59081;42.706;23.306;2023-05-01T07:09:30;95286.31;;;15.09;66.64
43934;BME280;59081;42.706;23.306;2023-05-01T07:11:55;95337.13;;;15.61;64.56
43934;BME280;59081;42.706;23.306;2023-05-01T07:14:22;95379.25;;;16.20;62.22
43934;BME280;59081;42.706;23.306;2023-05-01T07:16:48;95235.50;;;15.45;61.22
43934;BME280;59081;42.706;23.306;2023-05-01T07:19:13;95263.84;;;15.68;60.95
43934;BME280;59081;42.706;23.306;2023-05-01T07:21:39;95267.84;;;15.76;58.82
43934;BME280;59081;42.706;23.306;2023-05-01T07:24:05;95372.88;;;15.86;60.82
43934;BME280;59081;42.706;23.306;2023-05-01T07:26:31;95311.09;;;15.58;61.96
43934;BME280;59081;42.706;23.306;2023-05-01T07:28:56;95366.47;;;16.13;60.93
43934;BME280;59081;42.706;23.306;2023-05-01T07:31:21;95297.13;;;15.77;60.77
43934;BME280;59081;42.706;23.306;2023-05-01T07:33:47;95292.97;;;15.81;59.91
43934;BME280;59081;42.706;23.306;2023-05-01T07:36:13;95317.66;;;15.88;60.10
43934;BME280;59081;42.706;23.306;2023-05-01T07:38:38;95362.22;;;15.94;59.36
43934;BME280;59081;42.706;23.306;2023-05-01T07:41:04;95279.38;;;15.23;60.79
43934;BME280;59081;42.706;23.306;2023-05-01T07:43:30;95273.38;;;15.06;60.95
43934;BME280;59081;42.706;23.306;2023-05-01T07:45:57;95410.47;;;16.15;59.97
43934;BME280;59081;42.706;23.306;2023-05-01T07:48:25;95291.72;;;15.13;60.35
43934;BME280;59081;42.706;23.306;2023-05-01T07:50:51;95297.03;;;15.44;60.48
43934;BME280;59081;42.706;23.306;2023-05-01T07:53:16;95330.47;;;16.19;62.04
43934;BME280;59081;42.706;23.306;2023-05-01T07:55:42;95296.09;;;16.40;61.16
43934;BME280;59081;42.706;23.306;2023-05-01T07:58:07;95253.91;;;16.42;56.62
43934;BME280;59081;42.706;23.306;2023-05-01T08:00:33;95381.84;;;17.52;55.68
43934;BME280;59081;42.706;23.306;2023-05-01T08:02:59;95259.47;;;16.89;56.07
43934;BME280;59081;42.706;23.306;2023-05-01T08:05:25;95270.03;;;17.00;55.79
43934;BME280;59081;42.706;23.306;2023-05-01T08:07:50;95398.84;;;18.07;54.51
43934;BME280;59081;42.706;23.306;2023-05-01T08:10:16;95291.59;;;17.58;55.28
43934;BME280;59081;42.706;23.306;2023-05-01T08:12:41;95236.47;;;17.62;55.12
43934;BME280;59081;42.706;23.306;2023-05-01T08:15:07;95322.13;;;18.26;52.64
43934;BME280;59081;42.706;23.306;2023-05-01T08:17:34;95324.81;;;18.35;51.51
43934;BME280;59081;42.706;23.306;2023-05-01T08:20:00;95328.84;;;18.34;52.75
43934;BME280;59081;42.706;23.306;2023-05-01T08:22:25;95280.06;;;17.95;52.77
43934;BME280;59081;42.706;23.306;2023-05-01T08:24:50;95296.00;;;17.35;50.31
43934;BME280;59081;42.706;23.306;2023-05-01T08:27:16;95338.69;;;17.86;51.08
43934;BME280;59081;42.706;23.306;2023-05-01T08:29:42;95398.56;;;18.34;52.80
43934;BME280;59081;42.706;23.306;2023-05-01T08:32:07;95326.78;;;18.00;55.04
43934;BME280;59081;42.706;23.306;2023-05-01T08:34:33;95325.75;;;18.32;52.95
43934;BME280;59081;42.706;23.306;2023-05-01T08:36:58;95311.25;;;18.28;50.91
43934;BME280;59081;42.706;23.306;2023-05-01T08:39:24;95330.31;;;18.65;51.25
43934;BME280;59081;42.706;23.306;2023-05-01T08:41:50;95270.50;;;18.51;49.33
43934;BME280;59081;42.706;23.306;2023-05-01T08:44:18;95268.50;;;18.37;46.36
43934;BME280;59081;42.706;23.306;2023-05-01T08:49:33;95289.66;;;18.43;46.58
43934;BME280;59081;42.706;23.306;2023-05-01T08:52:01;95347.84;;;18.86;46.45
43934;BME280;59081;42.706;23.306;2023-05-01T08:54:28;95273.00;;;18.49;46.41
43934;BME280;59081;42.706;23.306;2023-05-01T08:56:59;95284.84;;;18.99;46.17
43934;BME280;59081;42.706;23.306;2023-05-01T08:59:26;95305.34;;;18.96;46.54
43934;BME280;59081;42.706;23.306;2023-05-01T09:01:55;95361.88;;;19.11;46.75
43934;BME280;59081;42.706;23.306;2023-05-01T09:04:20;95258.59;;;18.71;46.77
43934;BME280;59081;42.706;23.306;2023-05-01T09:06:46;95286.34;;;19.21;46.56
43934;BME280;59081;42.706;23.306;2023-05-01T09:09:12;95313.94;;;19.59;46.62
43934;BME280;59081;42.706;23.306;2023-05-01T09:11:38;95295.97;;;19.45;46.40
43934;BME280;59081;42.706;23.306;2023-05-01T09:14:04;95379.59;;;20.27;45.90
43934;BME280;59081;42.706;23.306;2023-05-01T09:16:30;95298.22;;;19.62;45.06
43934;BME280;59081;42.706;23.306;2023-05-01T09:18:56;95368.28;;;20.10;46.11
43934;BME280;59081;42.706;23.306;2023-05-01T09:21:21;95325.38;;;19.87;45.57
43934;BME280;59081;42.706;23.306;2023-05-01T09:23:50;95256.84;;;19.66;45.70
43934;BME280;59081;42.706;23.306;2023-05-01T09:26:15;95304.53;;;20.20;44.36
43934;BME280;59081;42.706;23.306;2023-05-01T09:28:42;95384.88;;;20.82;43.56
43934;BME280;59081;42.706;23.306;2023-05-01T09:33:54;95297.72;;;20.26;43.84
43934;BME280;59081;42.706;23.306;2023-05-01T09:36:20;95262.78;;;20.42;43.89
43934;BME280;59081;42.706;23.306;2023-05-01T09:38:47;95367.78;;;20.80;43.70
43934;BME280;59081;42.706;23.306;2023-05-01T09:41:13;95295.72;;;20.32;44.96
43934;BME280;59081;42.706;23.306;2023-05-01T09:43:38;95377.53;;;20.90;46.01
43934;BME280;59081;42.706;23.306;2023-05-01T09:46:08;95299.38;;;20.38;44.34
43934;BME280;59081;42.706;23.306;2023-05-01T09:48:35;95280.56;;;20.39;45.29
43934;BME280;59081;42.706;23.306;2023-05-01T09:51:25;95286.13;;;19.76;44.40
43934;BME280;59081;42.706;23.306;2023-05-01T09:53:58;95323.97;;;20.34;44.03
43934;BME280;59081;42.706;23.306;2023-05-01T09:56:28;95256.47;;;19.53;42.10
43934;BME280;59081;42.706;23.306;2023-05-01T09:58:56;95291.78;;;19.81;40.21
43934;BME280;59081;42.706;23.306;2023-05-01T10:01:44;95314.69;;;20.17;40.69
43934;BME280;59081;42.706;23.306;2023-05-01T10:04:11;95248.81;;;19.27;40.73
43934;BME280;59081;42.706;23.306;2023-05-01T10:06:40;95291.66;;;19.96;43.69
43934;BME280;59081;42.706;23.306;2023-05-01T10:09:06;95320.50;;;20.39;41.24
43934;BME280;59081;42.706;23.306;2023-05-01T10:11:53;95289.63;;;20.34;39.85
43934;BME280;59081;42.706;23.306;2023-05-01T10:14:19;95257.97;;;20.48;40.48
43934;BME280;59081;42.706;23.306;2023-05-01T10:16:47;95237.38;;;20.51;39.36
43934;BME280;59081;42.706;23.306;2023-05-01T10:19:14;95284.63;;;20.43;42.18
43934;BME280;59081;42.706;23.306;2023-05-01T10:21:41;95249.34;;;20.14;42.32
43934;BME280;59081;42.706;23.306;2023-05-01T10:24:06;95287.59;;;20.34;40.74
43934;BME280;59081;42.706;23.306;2023-05-01T10:26:34;95256.59;;;20.75;42.30
43934;BME280;59081;42.706;23.306;2023-05-01T10:29:01;95317.91;;;21.27;42.37
43934;BME280;59081;42.706;23.306;2023-05-01T10:31:27;95215.34;;;20.75;41.50
43934;BME280;59081;42.706;23.306;2023-05-01T10:33:54;95332.41;;;21.25;41.12
43934;BME280;59081;42.706;23.306;2023-05-01T10:36:42;95318.59;;;21.16;41.58
43934;BME280;59081;42.706;23.306;2023-05-01T10:39:34;95347.31;;;21.59;41.31
43934;BME280;59081;42.706;23.306;2023-05-01T10:42:00;95342.94;;;21.52;40.48
43934;BME280;59081;42.706;23.306;2023-05-01T10:44:27;95307.50;;;21.49;40.30
43934;BME280;59081;42.706;23.306;2023-05-01T10:46:54;95321.31;;;21.70;37.76
43934;BME280;59081;42.706;23.306;2023-05-01T10:49:19;95221.16;;;21.48;35.83
43934;BME280;59081;42.706;23.306;2023-05-01T10:51:59;95229.31;;;21.46;36.03
43934;BME280;59081;42.706;23.306;2023-05-01T10:54:29;95296.88;;;21.87;34.96
43934;BME280;59081;42.706;23.306;2023-05-01T10:57:00;95287.47;;;22.29;34.03
43934;BME280;59081;42.706;23.306;2023-05-01T10:59:27;95249.47;;;22.00;35.23
43934;BME280;59081;42.706;23.306;2023-05-01T11:01:52;95281.81;;;22.63;33.83
43934;BME280;59081;42.706;23.306;2023-05-01T11:12:11;95206.38;;;21.75;35.54
43934;BME280;59081;42.706;23.306;2023-05-01T11:20:06;95335.72;;;23.36;33.91
43934;BME280;59081;42.706;23.306;2023-05-01T11:22:32;95252.53;;;21.80;34.20
43934;BME280;59081;42.706;23.306;2023-05-01T11:24:59;95340.72;;;21.84;35.36
43934;BME280;59081;42.706;23.306;2023-05-01T11:27:25;95196.25;;;20.74;34.68
43934;BME280;59081;42.706;23.306;2023-05-01T11:29:52;95244.44;;;20.95;35.41
43934;BME280;59081;42.706;23.306;2023-05-01T11:32:27;95230.88;;;20.82;35.36
43934;BME280;59081;42.706;23.306;2023-05-01T11:34:54;95278.59;;;21.15;34.98
43934;BME280;59081;42.706;23.306;2023-05-01T11:37:38;95262.88;;;21.24;35.94
43934;BME280;59081;42.706;23.306;2023-05-01T11:40:17;95314.97;;;21.80;34.53
43934;BME280;59081;42.706;23.306;2023-05-01T11:42:44;95245.47;;;21.03;35.23
43934;BME280;59081;42.706;23.306;2023-05-01T11:45:10;95277.84;;;21.09;35.49
43934;BME280;59081;42.706;23.306;2023-05-01T11:47:37;95275.72;;;20.39;36.24
43934;BME280;59081;42.706;23.306;2023-05-01T11:50:03;95263.53;;;20.05;37.11
43934;BME280;59081;42.706;23.306;2023-05-01T11:52:28;95327.81;;;20.74;36.45
43934;BME280;59081;42.706;23.306;2023-05-01T11:54:54;95236.59;;;20.50;36.22
43934;BME280;59081;42.706;23.306;2023-05-01T11:57:19;95275.50;;;21.02;35.36
43934;BME280;59081;42.706;23.306;2023-05-01T11:59:46;95194.22;;;20.80;34.80
43934;BME280;59081;42.706;23.306;2023-05-01T12:02:19;95201.97;;;21.18;34.78
43934;BME280;59081;42.706;23.306;2023-05-01T12:04:44;95314.41;;;21.43;34.55
43934;BME280;59081;42.706;23.306;2023-05-01T12:07:22;95203.69;;;19.60;36.04
43934;BME280;59081;42.706;23.306;2023-05-01T12:09:49;95327.06;;;20.73;35.97
43934;BME280;59081;42.706;23.306;2023-05-01T12:12:15;95308.81;;;20.15;38.35
43934;BME280;59081;42.706;23.306;2023-05-01T12:14:41;95244.66;;;19.43;38.97
43934;BME280;59081;42.706;23.306;2023-05-01T12:17:07;95276.63;;;19.62;39.23
43934;BME280;59081;42.706;23.306;2023-05-01T12:19:45;95301.94;;;19.53;40.34
43934;BME280;59081;42.706;23.306;2023-05-01T12:22:12;95236.88;;;19.01;39.48
43934;BME280;59081;42.706;23.306;2023-05-01T12:24:47;95255.25;;;18.87;40.02
43934;BME280;59081;42.706;23.306;2023-05-01T12:27:13;95284.63;;;19.03;39.80
43934;BME280;59081;42.706;23.306;2023-05-01T12:29:39;95223.84;;;18.31;39.32
43934;BME280;59081;42.706;23.306;2023-05-01T12:32:11;95275.44;;;18.41;39.84
43934;BME280;59081;42.706;23.306;2023-05-01T12:34:38;95262.31;;;18.62;40.75
43934;BME280;59081;42.706;23.306;2023-05-01T12:37:04;95267.69;;;18.66;42.30
43934;BME280;59081;42.706;23.306;2023-05-01T12:39:39;95291.44;;;18.61;42.75
43934;BME280;59081;42.706;23.306;2023-05-01T12:42:13;95261.09;;;18.49;43.41
43934;BME280;59081;42.706;23.306;2023-05-01T12:44:39;95236.31;;;18.56;42.95
43934;BME280;59081;42.706;23.306;2023-05-01T12:47:06;95303.47;;;19.54;42.04
43934;BME280;59081;42.706;23.306;2023-05-01T12:49:34;95256.84;;;19.97;40.50
43934;BME280;59081;42.706;23.306;2023-05-01T12:52:02;95239.38;;;20.08;39.88
43934;BME280;59081;42.706;23.306;2023-05-01T12:54:33;95322.97;;;21.23;38.60
43934;BME280;59081;42.706;23.306;2023-05-01T12:57:08;95323.75;;;20.75;39.18
43934;BME280;59081;42.706;23.306;2023-05-01T12:59:36;95294.31;;;20.96;37.90
43934;BME280;59081;42.706;23.306;2023-05-01T13:02:03;95230.44;;;20.95;37.00
43934;BME280;59081;42.706;23.306;2023-05-01T13:04:29;95230.16;;;20.87;37.35
43934;BME280;59081;42.706;23.306;2023-05-01T13:06:55;95302.03;;;21.18;38.37
43934;BME280;59081;42.706;23.306;2023-05-01T13:09:26;95241.97;;;20.17;39.16
43934;BME280;59081;42.706;23.306;2023-05-01T13:11:59;95307.44;;;20.68;39.05
43934;BME280;59081;42.706;23.306;2023-05-01T13:14:26;95253.06;;;20.37;39.84
43934;BME280;59081;42.706;23.306;2023-05-01T13:16:53;95281.38;;;20.50;39.12
43934;BME280;59081;42.706;23.306;2023-05-01T13:19:26;95282.50;;;19.96;39.68
43934;BME280;59081;42.706;23.306;2023-05-01T13:21:53;95250.28;;;19.74;39.62
43934;BME280;59081;42.706;23.306;2023-05-01T13:24:19;95238.69;;;19.81;39.72